createdAt,value
2022-08-30T00:03:36.138Z,14.44
2022-08-30T00:08:38.803Z,14.41
2022-08-30T00:13:43.819Z,14.37
2022-08-30T00:18:48.033Z,14.31
2022-08-30T00:23:50.463Z,14.14
2022-08-30T00:28:52.549Z,14.02
2022-08-30T00:33:55.969Z,13.96
2022-08-30T00:38:57.911Z,13.96
2022-08-30T00:44:00.934Z,14.05
2022-08-30T00:49:07.911Z,13.86
2022-08-30T00:54:10.934Z,13.85
2022-08-30T00:59:13.655Z,13.85
2022-08-30T01:04:17.594Z,13.65
2022-08-30T01:09:20.279Z,13.71
2022-08-30T01:14:25.307Z,13.69
2022-08-30T01:19:35.885Z,13.65
2022-08-30T01:24:39.458Z,13.66
2022-08-30T01:29:41.908Z,13.51
2022-08-30T01:34:44.015Z,13.49
2022-08-30T01:39:47.560Z,13.43
2022-08-30T01:44:49.539Z,13.42
2022-08-30T01:49:51.879Z,13.33
2022-08-30T01:54:55.232Z,13.34
2022-08-30T01:59:56.926Z,13.27
2022-08-30T02:04:59.166Z,13.28
2022-08-30T02:10:02.895Z,13.25
2022-08-30T02:15:06.015Z,13.16
2022-08-30T02:20:09.955Z,13.20
2022-08-30T02:25:18.705Z,13.05
2022-08-30T02:30:23.451Z,12.96
2022-08-30T02:35:26.044Z,12.80
2022-08-30T02:40:29.592Z,12.82
2022-08-30T02:45:32.201Z,12.82
2022-08-30T02:50:34.362Z,12.74
2022-08-30T02:55:37.799Z,12.72
2022-08-30T03:00:40.780Z,12.61
2022-08-30T03:05:42.799Z,12.58
2022-08-30T03:10:45.847Z,12.52
2022-08-30T03:15:48.021Z,12.49
2022-08-30T03:20:54.010Z,12.43
2022-08-30T03:25:58.160Z,12.36
2022-08-30T03:31:00.794Z,12.29
2022-08-30T03:36:02.869Z,12.26
2022-08-30T03:41:07.994Z,12.28
2022-08-30T03:46:12.163Z,12.36
2022-08-30T03:51:13.901Z,12.49
2022-08-30T03:56:17.622Z,12.86
2022-08-30T04:01:19.487Z,13.02
2022-08-30T04:06:21.271Z,13.29
2022-08-30T04:11:24.358Z,13.40
2022-08-30T04:16:26.428Z,13.56
2022-08-30T04:21:28.538Z,13.74
2022-08-30T04:26:31.601Z,13.83
2022-08-30T04:31:33.486Z,13.87
2022-08-30T04:36:35.659Z,13.97
2022-08-30T04:41:39.191Z,14.21
2022-08-30T04:46:44.614Z,14.36
2022-08-30T04:51:46.766Z,14.53
2022-08-30T04:56:49.843Z,14.65
2022-08-30T05:01:51.731Z,14.86
2022-08-30T05:06:53.605Z,15.06
2022-08-30T05:11:56.654Z,15.13
2022-08-30T05:16:58.357Z,15.40
2022-08-30T05:22:00.285Z,15.70
2022-08-30T05:27:03.718Z,15.90
2022-08-30T05:32:05.852Z,16.04
2022-08-30T05:37:07.535Z,16.21
2022-08-30T05:42:11.144Z,16.37
2022-08-30T05:47:19.362Z,16.98
2022-08-30T05:52:22.022Z,16.76
2022-08-30T05:57:25.881Z,16.95
2022-08-30T06:02:28.182Z,16.97
2022-08-30T06:07:29.817Z,17.09
2022-08-30T06:12:33.230Z,17.32
2022-08-30T06:17:34.941Z,17.34
2022-08-30T06:22:37.155Z,17.48
2022-08-30T06:27:40.209Z,17.52
2022-08-30T06:32:41.848Z,18.57
2022-08-30T06:37:43.573Z,18.83
2022-08-30T06:42:46.939Z,18.91
2022-08-30T06:47:48.873Z,18.53
2022-08-30T06:52:50.619Z,17.99
2022-08-30T06:57:53.688Z,18.48
2022-08-30T07:02:55.632Z,18.97
2022-08-30T07:07:57.406Z,19.74
2022-08-30T07:13:00.457Z,19.76
2022-08-30T07:18:02.670Z,19.46
2022-08-30T07:23:04.642Z,19.80
2022-08-30T07:28:09.092Z,19.79
2022-08-30T07:33:10.838Z,20.24
2022-08-30T07:38:13.139Z,19.85
2022-08-30T07:43:16.360Z,19.20
2022-08-30T07:48:18.174Z,19.59
2022-08-30T07:53:20.011Z,19.39
2022-08-30T07:58:24.419Z,19.81
2022-08-30T08:03:26.542Z,19.96
2022-08-30T08:08:28.762Z,19.34
2022-08-30T08:13:32.786Z,20.13
2022-08-30T08:18:38.328Z,20.32
2022-08-30T08:23:40.271Z,20.14
2022-08-30T08:28:44.102Z,20.69
2022-08-30T08:33:45.824Z,21.13
2022-08-30T08:38:47.631Z,20.92
2022-08-30T08:43:50.903Z,20.76
2022-08-30T08:49:00.891Z,20.49
2022-08-30T08:54:08.103Z,20.63
2022-08-30T08:59:13.370Z,21.35
2022-08-30T09:04:20.675Z,21.89
2022-08-30T09:09:27.360Z,23.04
2022-08-30T09:14:34.779Z,24.23
2022-08-30T09:19:40.028Z,27.05
2022-08-30T09:24:45.209Z,24.48
2022-08-30T09:29:58.026Z,22.60
2022-08-30T09:35:00.022Z,20.86
2022-08-30T09:40:07.820Z,19.97
2022-08-30T09:45:20.051Z,20.07
2022-08-30T09:50:21.899Z,20.33
2022-08-30T09:55:54.699Z,21.85
2022-08-30T10:01:06.044Z,21.34
2022-08-30T10:06:18.252Z,23.83
2022-08-30T10:11:28.031Z,23.44
2022-08-30T10:16:41.399Z,24.60
2022-08-30T10:21:49.246Z,24.92
2022-08-30T10:26:56.279Z,22.21
2022-08-30T10:32:04.402Z,22.68
2022-08-30T10:37:09.895Z,22.20
2022-08-30T10:42:18.563Z,23.72
2022-08-30T10:47:29.495Z,26.30
2022-08-30T10:52:39.069Z,24.58
2022-08-30T10:57:43.710Z,25.08
2022-08-30T11:03:05.871Z,22.77
2022-08-30T11:08:26.032Z,22.70
2022-08-30T11:13:30.965Z,24.34
2022-08-30T11:18:43.401Z,24.19
2022-08-30T11:24:02.402Z,23.46
2022-08-30T11:29:09.350Z,22.61
2022-08-30T11:34:12.602Z,22.03
2022-08-30T11:39:42.987Z,21.88
2022-08-30T11:44:45.357Z,23.56
2022-08-30T11:49:59.003Z,23.75
2022-08-30T11:55:21.428Z,23.83
2022-08-30T12:00:34.272Z,24.29
2022-08-30T12:05:59.990Z,23.63
2022-08-30T12:11:04.224Z,23.35
2022-08-30T12:16:07.329Z,23.40
2022-08-30T12:21:28.652Z,24.79
2022-08-30T12:26:35.808Z,24.63
2022-08-30T12:31:44.679Z,24.59
2022-08-30T12:36:54.027Z,23.61
2022-08-30T12:41:56.535Z,24.30
2022-08-30T12:47:03.304Z,24.81
2022-08-30T12:52:21.767Z,24.05
2022-08-30T12:57:38.522Z,23.42
2022-08-30T13:02:52.683Z,23.61
2022-08-30T13:08:10.709Z,24.12
2022-08-30T13:13:27.791Z,25.77
2022-08-30T13:28:59.112Z,24.90
2022-08-30T13:34:01.510Z,24.74
2022-08-30T13:39:04.760Z,24.72
2022-08-30T13:44:11.881Z,24.23
2022-08-30T13:54:40.577Z,24.50
2022-08-30T13:59:43.698Z,24.59
2022-08-30T14:04:52.950Z,23.94
2022-08-30T14:10:30.225Z,23.27
2022-08-30T14:15:18.571Z,23.63
2022-08-30T14:20:20.823Z,23.73
2022-08-30T14:25:22.770Z,24.17
2022-08-30T14:30:27.029Z,24.10
2022-08-30T14:35:29.631Z,24.13
2022-08-30T14:40:31.674Z,23.83
2022-08-30T14:45:37.033Z,23.95
2022-08-30T14:50:39.267Z,23.99
2022-08-30T14:55:41.299Z,23.71
2022-08-30T15:00:50.802Z,24.03
2022-08-30T15:05:53.560Z,23.68
2022-08-30T15:10:55.858Z,23.89
2022-08-30T15:15:59.369Z,24.28
2022-08-30T15:21:01.502Z,24.52
2022-08-30T15:26:04.882Z,24.53
2022-08-30T15:31:10.274Z,23.87
2022-08-30T15:36:13.083Z,24.13
2022-08-30T15:41:15.529Z,23.59
2022-08-30T15:46:21.962Z,22.77
2022-08-30T15:51:25.985Z,22.60
2022-08-30T15:56:28.176Z,22.49
2022-08-30T16:01:32.386Z,22.44
2022-08-30T16:06:36.312Z,22.31
2022-08-30T16:11:38.923Z,22.55
2022-08-30T16:16:42.403Z,22.48
2022-08-30T16:21:44.770Z,22.35
2022-08-30T16:26:47.667Z,22.55
2022-08-30T16:31:51.250Z,22.87
2022-08-30T16:36:53.985Z,22.48
2022-08-30T16:41:56.062Z,21.97
2022-08-30T16:46:59.836Z,21.73
2022-08-30T16:52:01.915Z,21.63
2022-08-30T16:57:06.472Z,21.66
2022-08-30T17:02:10.197Z,21.48
2022-08-30T17:07:13.734Z,21.39
2022-08-30T17:12:16.654Z,21.54
2022-08-30T17:17:22.225Z,21.25
2022-08-30T17:22:24.886Z,20.93
2022-08-30T17:27:28.819Z,20.86
2022-08-30T17:32:32.296Z,20.63
2022-08-30T17:37:34.334Z,20.57
2022-08-30T17:42:36.578Z,20.43
2022-08-30T17:47:40.585Z,20.33
2022-08-30T17:52:43.272Z,20.15
2022-08-30T17:57:46.362Z,20.10
2022-08-30T18:02:54.350Z,19.88
2022-08-30T18:07:56.399Z,19.73
2022-08-30T18:12:58.304Z,19.58
2022-08-30T18:18:01.672Z,19.35
2022-08-30T18:23:06.428Z,19.48
2022-08-30T18:28:10.243Z,19.36
2022-08-30T18:33:16.087Z,19.21
2022-08-30T18:38:23.722Z,19.09
2022-08-30T18:43:31.160Z,19.03
2022-08-30T18:48:35.334Z,18.91
2022-08-30T18:53:37.864Z,18.81
2022-08-30T18:58:39.862Z,18.70
2022-08-30T19:03:47.751Z,18.52
2022-08-30T19:08:51.021Z,18.48
2022-08-30T19:13:53.191Z,18.41
2022-08-30T19:18:56.863Z,18.43
2022-08-30T19:23:59.430Z,18.27
2022-08-30T19:29:01.846Z,18.11
2022-08-30T19:34:05.910Z,18.08
2022-08-30T19:39:08.274Z,17.99
2022-08-30T19:44:10.159Z,17.75
2022-08-30T19:49:13.743Z,17.72
2022-08-30T19:54:15.584Z,17.66
2022-08-30T19:59:19.381Z,17.57
2022-08-30T20:04:23.266Z,17.48
2022-08-30T20:09:27.408Z,17.34
2022-08-30T20:14:29.472Z,17.27
2022-08-30T20:19:32.792Z,17.15
2022-08-30T20:29:37.318Z,16.96
2022-08-30T20:34:40.363Z,16.85
2022-08-30T20:39:42.350Z,16.74
2022-08-30T20:44:44.231Z,16.62
2022-08-30T20:49:47.920Z,16.57
2022-08-30T20:54:49.621Z,16.52
2022-08-30T20:59:58.398Z,16.41
2022-08-30T21:05:04.205Z,16.28
2022-08-30T21:10:07.210Z,16.25
2022-08-30T21:15:33.904Z,16.17
2022-08-30T21:20:34.628Z,16.26
2022-08-30T21:25:38.181Z,16.34
2022-08-30T21:30:40.320Z,16.36
2022-08-30T21:35:43.766Z,16.27
2022-08-30T21:40:46.397Z,16.18
2022-08-30T21:45:48.756Z,16.07
2022-08-30T21:50:52.641Z,16.06
2022-08-30T21:55:54.606Z,15.94
2022-08-30T22:00:57.641Z,15.89
2022-08-30T22:06:00.881Z,15.87
2022-08-30T22:11:06.112Z,15.88
2022-08-30T22:16:08.703Z,15.81
2022-08-30T22:21:14.495Z,15.77
2022-08-30T22:26:17.904Z,15.83
2022-08-30T22:31:21.753Z,16.00
2022-08-30T22:36:32.762Z,15.99
2022-08-30T22:41:35.750Z,16.13
2022-08-30T22:46:38.121Z,16.17
2022-08-30T22:51:41.980Z,16.13
2022-08-30T22:56:44.189Z,16.22
2022-08-30T23:01:46.275Z,16.28
2022-08-30T23:06:50.375Z,16.23
2022-08-30T23:11:52.117Z,16.20
2022-08-30T23:16:54.181Z,16.23
2022-08-30T23:21:57.698Z,16.18
2022-08-30T23:26:59.748Z,16.11
2022-08-30T23:32:03.127Z,16.12
2022-08-30T23:37:06.575Z,16.13
2022-08-30T23:42:08.867Z,15.92
2022-08-30T23:47:10.683Z,15.65
2022-08-30T23:52:14.116Z,15.48
2022-08-30T23:57:16.089Z,15.33
